createdAt,value
2023-01-18T00:01:22.510Z,36.30
2023-01-18T00:03:51.470Z,38.30
2023-01-18T00:06:20.067Z,48.00
2023-01-18T00:08:48.266Z,42.50
2023-01-18T00:11:19.278Z,42.80
2023-01-18T00:13:48.504Z,36.30
2023-01-18T00:16:21.571Z,36.00
2023-01-18T00:18:57.976Z,35.90
2023-01-18T00:21:28.167Z,40.60
2023-01-18T00:23:57.148Z,43.70
2023-01-18T00:26:25.672Z,39.90
2023-01-18T00:28:56.523Z,39.40
2023-01-18T00:31:24.976Z,37.90
2023-01-18T00:33:53.184Z,38.10
2023-01-18T00:36:21.780Z,37.00
2023-01-18T00:38:54.128Z,34.40
2023-01-18T00:41:22.527Z,31.30
2023-01-18T00:43:52.088Z,30.10
2023-01-18T00:46:25.891Z,28.70
2023-01-18T00:48:55.623Z,31.60
2023-01-18T00:51:25.478Z,29.80
2023-01-18T00:53:53.807Z,27.70
2023-01-18T00:56:23.537Z,29.40
2023-01-18T00:58:51.923Z,30.80
2023-01-18T01:01:20.844Z,29.50
2023-01-18T01:04:08.101Z,31.40
2023-01-18T01:06:46.748Z,23.90
2023-01-18T01:09:19.547Z,21.10
2023-01-18T01:12:08.068Z,19.70
2023-01-18T01:14:59.824Z,19.20
2023-01-18T01:17:52.483Z,19.00
2023-01-18T01:20:40.734Z,17.70
2023-01-18T01:23:39.862Z,18.30
2023-01-18T01:26:13.044Z,19.10
2023-01-18T01:28:44.158Z,19.40
2023-01-18T01:31:15.717Z,17.80
2023-01-18T01:33:45.249Z,19.40
2023-01-18T01:36:19.176Z,18.90
2023-01-18T01:38:48.243Z,20.00
2023-01-18T01:41:27.259Z,20.50
2023-01-18T01:44:03.204Z,20.20
2023-01-18T01:46:50.069Z,20.10
2023-01-18T01:49:25.228Z,21.80
2023-01-18T01:52:01.163Z,22.60
2023-01-18T01:54:41.495Z,21.60
2023-01-18T01:57:16.320Z,21.80
2023-01-18T02:00:10.627Z,21.20
2023-01-18T02:02:41.191Z,22.00
2023-01-18T02:05:12.940Z,22.30
2023-01-18T02:07:41.813Z,21.80
2023-01-18T02:10:11.214Z,22.60
2023-01-18T02:12:42.261Z,22.30
2023-01-18T02:15:11.625Z,23.60
2023-01-18T02:18:13.359Z,24.20
2023-01-18T02:21:26.986Z,24.80
2023-01-18T02:24:32.794Z,24.40
2023-01-18T02:27:44.077Z,23.00
2023-01-18T02:30:35.884Z,24.10
2023-01-18T02:33:07.008Z,23.30
2023-01-18T02:35:50.004Z,23.00
2023-01-18T02:38:29.019Z,22.80
2023-01-18T02:41:50.964Z,24.10
2023-01-18T02:44:45.152Z,23.40
2023-01-18T02:47:14.640Z,21.90
2023-01-18T02:49:43.116Z,22.40
2023-01-18T02:52:41.619Z,22.40
2023-01-18T02:55:28.981Z,21.90
2023-01-18T02:58:08.566Z,21.90
2023-01-18T03:00:40.701Z,23.80
2023-01-18T03:03:12.384Z,23.10
2023-01-18T03:05:42.854Z,21.40
2023-01-18T03:08:41.131Z,22.50
2023-01-18T03:11:15.097Z,22.40
2023-01-18T03:13:46.929Z,22.70
2023-01-18T03:16:23.052Z,22.80
2023-01-18T03:19:02.659Z,22.40
2023-01-18T03:21:43.126Z,21.70
2023-01-18T03:24:12.509Z,21.70
2023-01-18T03:26:47.428Z,22.50
2023-01-18T03:29:37.542Z,22.50
2023-01-18T03:32:31.735Z,21.00
2023-01-18T03:35:09.227Z,21.20
2023-01-18T03:37:41.025Z,21.80
2023-01-18T03:40:23.963Z,22.10
2023-01-18T03:43:07.889Z,22.20
2023-01-18T03:45:43.848Z,20.30
2023-01-18T03:48:12.738Z,21.50
2023-01-18T03:50:53.465Z,22.00
2023-01-18T03:53:35.345Z,24.00
2023-01-18T03:56:20.531Z,22.50
2023-01-18T03:58:53.057Z,20.30
2023-01-18T04:01:21.952Z,21.40
2023-01-18T04:03:50.528Z,20.80
2023-01-18T04:06:23.103Z,22.50
2023-01-18T04:08:51.610Z,22.80
2023-01-18T04:11:20.431Z,22.00
2023-01-18T04:13:48.882Z,21.50
2023-01-18T04:16:17.568Z,22.90
2023-01-18T04:18:46.152Z,22.60
2023-01-18T04:21:14.550Z,23.00
2023-01-18T04:23:42.679Z,22.70
2023-01-18T04:26:12.145Z,21.10
2023-01-18T04:28:40.437Z,21.90
2023-01-18T04:31:09.463Z,22.80
2023-01-18T04:33:38.006Z,22.90
2023-01-18T04:36:10.209Z,23.70
2023-01-18T04:38:38.831Z,23.40
2023-01-18T04:41:07.586Z,24.20
2023-01-18T04:43:36.908Z,23.60
2023-01-18T04:46:05.269Z,23.60
2023-01-18T04:48:33.552Z,22.50
2023-01-18T04:51:01.988Z,20.50
2023-01-18T04:53:30.694Z,22.00
2023-01-18T04:55:59.200Z,22.70
2023-01-18T04:58:28.016Z,21.70
2023-01-18T05:00:56.527Z,23.70
2023-01-18T05:03:26.489Z,27.50
2023-01-18T05:05:55.802Z,29.90
2023-01-18T05:08:24.473Z,28.60
2023-01-18T05:10:54.566Z,29.30
2023-01-18T05:13:22.758Z,26.20
2023-01-18T05:15:51.139Z,24.70
2023-01-18T05:18:19.273Z,24.20
2023-01-18T05:20:48.822Z,23.90
2023-01-18T05:23:17.776Z,25.30
2023-01-18T05:25:46.089Z,24.40
2023-01-18T05:28:15.017Z,22.90
2023-01-18T05:30:43.620Z,23.10
2023-01-18T05:33:12.114Z,23.80
2023-01-18T05:35:41.266Z,25.10
2023-01-18T05:38:09.676Z,25.90
2023-01-18T05:40:38.165Z,25.30
2023-01-18T05:43:06.270Z,25.20
2023-01-18T05:45:34.599Z,26.70
2023-01-18T05:48:04.254Z,27.20
2023-01-18T05:50:33.140Z,26.50
2023-01-18T05:53:01.871Z,28.20
2023-01-18T05:55:30.544Z,28.80
2023-01-18T05:57:59.282Z,30.70
2023-01-18T06:00:27.928Z,30.50
2023-01-18T06:02:56.868Z,29.70
2023-01-18T06:05:25.838Z,27.00
2023-01-18T06:07:54.722Z,28.20
2023-01-18T06:10:23.191Z,29.20
2023-01-18T06:12:51.795Z,29.70
2023-01-18T06:15:20.554Z,30.50
2023-01-18T06:17:51.403Z,29.90
2023-01-18T06:20:19.915Z,30.80
2023-01-18T06:22:48.435Z,32.10
2023-01-18T06:25:17.125Z,34.40
2023-01-18T06:27:45.803Z,33.30
2023-01-18T06:30:14.929Z,31.70
2023-01-18T06:32:43.583Z,31.00
2023-01-18T06:35:12.560Z,31.70
2023-01-18T06:37:41.169Z,31.40
2023-01-18T06:40:12.198Z,31.10
2023-01-18T06:42:42.223Z,27.00
2023-01-18T06:45:11.494Z,26.50
2023-01-18T06:47:39.886Z,29.00
2023-01-18T06:50:09.078Z,25.50
2023-01-18T06:52:41.514Z,27.20
2023-01-18T06:55:10.821Z,26.50
2023-01-18T06:57:39.165Z,25.00
2023-01-18T07:00:09.347Z,26.70
2023-01-18T07:02:38.371Z,26.80
2023-01-18T07:05:07.256Z,28.50
2023-01-18T07:07:35.639Z,30.50
2023-01-18T07:10:06.180Z,29.30
2023-01-18T07:12:37.517Z,30.60
2023-01-18T07:15:20.846Z,29.70
2023-01-18T07:17:51.030Z,30.90
2023-01-18T07:20:20.311Z,30.90
2023-01-18T07:22:55.593Z,30.60
2023-01-18T07:25:24.646Z,34.70
2023-01-18T07:27:53.204Z,32.70
2023-01-18T07:30:22.032Z,31.60
2023-01-18T07:32:52.807Z,30.30
2023-01-18T07:35:22.440Z,30.60
2023-01-18T07:37:54.440Z,33.90
2023-01-18T07:40:22.938Z,36.50
2023-01-18T07:42:57.893Z,38.50
2023-01-18T07:45:26.457Z,37.60
2023-01-18T07:47:57.723Z,35.30
2023-01-18T07:50:26.325Z,37.50
2023-01-18T07:52:56.831Z,36.70
2023-01-18T07:55:25.280Z,38.10
2023-01-18T07:57:55.803Z,37.60
2023-01-18T08:00:26.375Z,38.20
2023-01-18T08:02:59.088Z,44.40
2023-01-18T08:05:33.135Z,48.40
2023-01-18T08:08:01.610Z,49.40
2023-01-18T08:10:30.268Z,47.10
2023-01-18T08:13:00.189Z,47.40
2023-01-18T08:15:30.372Z,48.00
2023-01-18T08:18:03.249Z,46.50
2023-01-18T08:20:32.456Z,49.00
2023-01-18T08:23:02.017Z,47.60
2023-01-18T08:25:34.001Z,45.30
2023-01-18T08:28:04.312Z,42.90
2023-01-18T08:30:39.250Z,44.40
2023-01-18T08:33:08.061Z,46.70
2023-01-18T08:35:42.720Z,48.30
2023-01-18T08:38:11.991Z,45.50
2023-01-18T08:40:40.691Z,46.90
2023-01-18T08:43:11.154Z,45.40
2023-01-18T08:45:39.361Z,47.70
2023-01-18T08:48:10.985Z,48.90
2023-01-18T08:50:44.511Z,46.90
2023-01-18T08:53:13.617Z,47.50
2023-01-18T08:55:42.096Z,46.70
2023-01-18T08:58:11.412Z,45.30
2023-01-18T09:00:40.056Z,43.10
2023-01-18T09:03:08.553Z,44.10
2023-01-18T09:05:37.939Z,41.70
2023-01-18T09:08:07.063Z,43.90
2023-01-18T09:10:39.185Z,48.10
2023-01-18T09:13:08.610Z,42.00
2023-01-18T09:15:37.346Z,37.40
2023-01-18T09:18:06.567Z,36.90
2023-01-18T09:20:36.754Z,37.20
2023-01-18T09:23:09.863Z,37.40
2023-01-18T09:25:38.454Z,38.90
2023-01-18T09:28:07.025Z,39.50
2023-01-18T09:30:36.389Z,39.40
2023-01-18T09:33:05.446Z,34.20
2023-01-18T09:35:34.457Z,36.60
2023-01-18T09:38:02.900Z,38.80
2023-01-18T09:40:44.296Z,31.50
2023-01-18T09:43:18.476Z,31.30
2023-01-18T09:45:47.857Z,30.70
2023-01-18T09:48:38.585Z,29.20
2023-01-18T09:52:04.157Z,25.30
2023-01-18T09:54:40.593Z,30.30
2023-01-18T09:57:16.627Z,29.30
2023-01-18T09:59:49.551Z,27.80
2023-01-18T10:02:21.444Z,28.20
2023-01-18T10:04:55.108Z,27.40
2023-01-18T10:07:28.780Z,26.40
2023-01-18T10:10:00.091Z,28.10
2023-01-18T10:12:57.330Z,27.50
2023-01-18T10:15:34.623Z,26.20
2023-01-18T10:18:01.901Z,28.20
2023-01-18T10:20:48.611Z,27.80
2023-01-18T10:23:34.309Z,28.50
2023-01-18T10:26:10.354Z,27.90
2023-01-18T10:28:44.702Z,27.80
2023-01-18T10:31:12.394Z,27.40
2023-01-18T10:33:41.667Z,30.20
2023-01-18T10:36:22.468Z,29.60
2023-01-18T10:38:56.512Z,28.30
2023-01-18T10:41:28.842Z,26.60
2023-01-18T10:43:56.351Z,27.80
2023-01-18T10:46:23.183Z,30.10
2023-01-18T10:48:53.153Z,30.80
2023-01-18T10:51:38.308Z,31.40
2023-01-18T10:54:23.088Z,29.10
2023-01-18T10:57:01.963Z,29.10
2023-01-18T10:59:37.328Z,30.00
2023-01-18T11:02:04.595Z,30.90
2023-01-18T11:04:33.401Z,27.20
2023-01-18T11:07:04.365Z,27.50
2023-01-18T11:09:34.596Z,22.30
2023-01-18T11:12:38.086Z,23.30
2023-01-18T11:15:14.541Z,23.00
2023-01-18T11:17:55.836Z,22.40
2023-01-18T11:20:45.132Z,22.30
2023-01-18T11:23:20.662Z,22.80
2023-01-18T11:25:58.824Z,22.10
2023-01-18T11:28:39.783Z,20.40
2023-01-18T11:31:13.572Z,19.50
2023-01-18T11:33:51.512Z,20.20
2023-01-18T11:36:21.342Z,20.50
2023-01-18T11:38:48.476Z,19.30
2023-01-18T11:41:20.487Z,18.20
2023-01-18T11:44:14.244Z,18.50
2023-01-18T11:46:48.046Z,16.30
2023-01-18T11:49:34.924Z,18.60
2023-01-18T11:52:03.213Z,18.20
2023-01-18T11:54:46.388Z,19.40
2023-01-18T11:57:16.827Z,18.80
2023-01-18T11:59:45.767Z,18.80
2023-01-18T12:02:38.267Z,17.20
2023-01-18T12:05:35.297Z,17.90
2023-01-18T12:08:13.455Z,24.60
2023-01-18T12:10:49.809Z,30.80
2023-01-18T12:13:27.373Z,32.80
2023-01-18T12:16:21.022Z,33.80
2023-01-18T12:18:54.790Z,43.30
2023-01-18T12:21:47.910Z,30.40
2023-01-18T12:24:21.375Z,31.70
2023-01-18T12:26:48.922Z,29.60
2023-01-18T12:29:47.917Z,29.10
2023-01-18T12:32:20.808Z,26.90
2023-01-18T12:35:30.120Z,26.80
2023-01-18T12:38:13.613Z,28.70
2023-01-18T12:41:05.329Z,28.30
2023-01-18T12:43:40.681Z,31.50
2023-01-18T12:46:16.049Z,28.90
2023-01-18T12:48:52.165Z,27.10
2023-01-18T12:51:23.487Z,28.70
2023-01-18T12:53:58.460Z,31.00
2023-01-18T12:56:39.804Z,30.00
2023-01-18T12:59:16.842Z,37.80
2023-01-18T13:01:51.439Z,28.40
2023-01-18T13:04:26.961Z,31.30
2023-01-18T13:06:59.191Z,28.10
2023-01-18T13:09:33.743Z,28.70
2023-01-18T13:12:04.597Z,30.40
2023-01-18T13:15:14.674Z,29.30
2023-01-18T13:17:53.367Z,25.00
2023-01-18T13:20:31.901Z,22.60
2023-01-18T13:23:17.588Z,23.30
2023-01-18T13:25:50.779Z,24.30
2023-01-18T13:28:20.789Z,26.40
2023-01-18T13:30:56.218Z,31.90
2023-01-18T13:33:26.658Z,28.80
2023-01-18T13:36:19.050Z,31.10
2023-01-18T13:38:53.049Z,26.10
2023-01-18T13:41:28.879Z,23.00
2023-01-18T13:44:01.061Z,27.50
2023-01-18T13:46:33.585Z,35.50
2023-01-18T13:49:36.103Z,27.50
2023-01-18T13:52:30.981Z,30.90
2023-01-18T13:55:02.118Z,26.20
2023-01-18T13:57:33.706Z,23.20
2023-01-18T14:00:01.857Z,22.90
2023-01-18T14:02:33.569Z,25.90
2023-01-18T14:05:16.220Z,32.20
2023-01-18T14:07:51.639Z,39.70
2023-01-18T14:10:27.403Z,33.90
2023-01-18T14:12:56.232Z,27.10
2023-01-18T14:15:28.576Z,26.40
2023-01-18T14:18:01.351Z,25.40
2023-01-18T14:20:53.213Z,25.40
2023-01-18T14:23:28.779Z,24.20
2023-01-18T14:26:14.424Z,25.40
2023-01-18T14:28:49.830Z,23.70
2023-01-18T14:31:23.713Z,25.50
2023-01-18T14:33:50.644Z,30.00
2023-01-18T14:36:25.362Z,29.40
2023-01-18T14:39:17.732Z,29.90
2023-01-18T14:41:47.610Z,30.50
2023-01-18T14:44:19.614Z,31.00
2023-01-18T14:46:55.648Z,35.20
2023-01-18T14:49:30.162Z,38.30
2023-01-18T14:51:59.209Z,38.90
2023-01-18T14:54:26.643Z,38.80
2023-01-18T14:57:09.705Z,47.20
2023-01-18T14:59:37.387Z,48.30
2023-01-18T15:02:18.622Z,44.30
2023-01-18T15:04:46.991Z,41.90
2023-01-18T15:07:30.506Z,40.50
2023-01-18T15:09:58.402Z,43.40
2023-01-18T15:12:32.019Z,40.60
2023-01-18T15:15:09.382Z,45.20
2023-01-18T15:17:37.498Z,40.10
2023-01-18T15:20:08.443Z,38.60
2023-01-18T15:22:40.001Z,37.60
2023-01-18T15:25:17.136Z,39.40
2023-01-18T15:27:50.052Z,41.30
2023-01-18T15:30:18.464Z,44.40
2023-01-18T15:32:47.751Z,45.00
2023-01-18T15:35:15.759Z,44.70
2023-01-18T15:37:42.720Z,39.20
2023-01-18T15:40:12.765Z,38.80
2023-01-18T15:42:44.066Z,35.50
2023-01-18T15:45:20.711Z,36.10
2023-01-18T15:47:54.080Z,34.40
2023-01-18T15:50:30.719Z,31.00
2023-01-18T15:53:11.527Z,33.90
2023-01-18T15:55:51.970Z,31.30
2023-01-18T15:58:31.143Z,30.90
2023-01-18T16:01:05.213Z,33.60
2023-01-18T16:03:52.982Z,37.60
2023-01-18T16:06:22.875Z,33.30
2023-01-18T16:09:13.534Z,35.80
2023-01-18T16:11:40.487Z,32.70
2023-01-18T16:14:37.965Z,30.20
2023-01-18T16:17:07.320Z,36.40
2023-01-18T16:19:41.859Z,31.10
2023-01-18T16:22:28.932Z,32.40
2023-01-18T16:24:55.816Z,31.40
2023-01-18T16:27:26.225Z,34.20
2023-01-18T16:30:16.986Z,38.40
2023-01-18T16:32:44.034Z,34.60
2023-01-18T16:35:17.192Z,31.90
2023-01-18T16:37:45.650Z,33.00
2023-01-18T16:40:16.206Z,36.30
2023-01-18T16:43:04.624Z,34.80
2023-01-18T16:45:38.409Z,32.90
2023-01-18T16:48:06.140Z,33.00
2023-01-18T16:50:33.482Z,32.50
2023-01-18T16:53:00.761Z,31.80
2023-01-18T16:55:28.173Z,30.40
2023-01-18T16:57:55.489Z,31.00
2023-01-18T17:00:26.611Z,32.90
2023-01-18T17:02:57.616Z,37.80
2023-01-18T17:05:24.571Z,39.40
2023-01-18T17:07:52.411Z,38.40
2023-01-18T17:10:43.729Z,37.50
2023-01-18T17:13:11.200Z,37.40
2023-01-18T17:15:41.380Z,37.70
2023-01-18T17:18:14.474Z,55.20
2023-01-18T17:20:42.080Z,51.80
2023-01-18T17:23:09.650Z,48.10
2023-01-18T17:25:37.083Z,52.70
2023-01-18T17:28:04.490Z,53.60
2023-01-18T17:30:32.477Z,52.10
2023-01-18T17:33:00.468Z,48.90
